createdAt,value
2018-06-10T00:00:09.577Z,9.97
2018-06-10T00:02:12.162Z,9.93
2018-06-10T00:04:14.729Z,9.43
2018-06-10T00:06:17.723Z,9.30
2018-06-10T00:08:20.295Z,10.40
2018-06-10T00:10:22.849Z,10.33
2018-06-10T00:12:25.408Z,10.40
2018-06-10T00:14:27.958Z,11.53
2018-06-10T00:16:31.268Z,11.20
2018-06-10T00:18:34.281Z,10.40
2018-06-10T00:20:36.824Z,10.77
2018-06-10T00:22:40.352Z,10.45
2018-06-10T00:24:43.054Z,9.87
2018-06-10T00:26:45.638Z,10.10
2018-06-10T00:28:48.952Z,11.23
2018-06-10T00:30:51.558Z,10.77
2018-06-10T00:32:54.105Z,11.20
2018-06-10T00:34:56.721Z,10.87
2018-06-10T00:36:59.305Z,12.13
2018-06-10T00:39:01.843Z,9.87
2018-06-10T00:41:04.436Z,10.37
2018-06-10T00:43:07.109Z,10.30
2018-06-10T00:45:09.652Z,10.20
2018-06-10T00:47:12.200Z,9.97
2018-06-10T00:49:15.997Z,9.87
2018-06-10T00:51:20.093Z,10.03
2018-06-10T00:53:22.613Z,10.40
2018-06-10T00:55:25.217Z,11.03
2018-06-10T00:57:27.781Z,10.00
2018-06-10T00:59:30.365Z,10.70
2018-06-10T01:01:33.048Z,9.97
2018-06-10T01:03:35.641Z,11.07
2018-06-10T01:05:38.288Z,10.33
2018-06-10T01:07:40.977Z,11.00
2018-06-10T01:09:43.534Z,10.07
2018-06-10T01:11:46.922Z,10.60
2018-06-10T01:13:49.520Z,10.70
2018-06-10T01:15:52.173Z,10.40
2018-06-10T01:17:54.759Z,11.63
2018-06-10T01:19:57.433Z,11.20
2018-06-10T01:22:00.022Z,10.73
2018-06-10T01:24:19.560Z,11.07
2018-06-10T01:26:22.221Z,10.70
2018-06-10T01:28:24.777Z,10.60
2018-06-10T01:30:28.093Z,10.87
2018-06-10T01:32:30.669Z,12.07
2018-06-10T01:34:33.258Z,11.30
2018-06-10T01:36:35.816Z,12.20
2018-06-10T01:38:38.813Z,10.83
2018-06-10T01:40:41.415Z,10.87
2018-06-10T01:42:44.057Z,10.90
2018-06-10T01:44:46.639Z,12.07
2018-06-10T01:46:49.217Z,10.93
2018-06-10T01:48:52.586Z,11.03
2018-06-10T01:50:55.477Z,10.20
2018-06-10T01:52:58.025Z,11.60
2018-06-10T01:55:00.636Z,11.53
2018-06-10T01:57:03.302Z,12.07
2018-06-10T01:59:05.854Z,11.10
2018-06-10T02:01:08.397Z,11.60
2018-06-10T02:03:11.950Z,13.30
2018-06-10T02:05:14.554Z,11.40
2018-06-10T02:07:17.105Z,11.83
2018-06-10T02:09:19.681Z,11.10
2018-06-10T02:11:22.241Z,12.27
2018-06-10T02:13:24.787Z,10.43
2018-06-10T02:15:27.813Z,12.90
2018-06-10T02:17:30.360Z,12.20
2018-06-10T02:19:32.949Z,11.70
2018-06-10T02:21:35.524Z,12.27
2018-06-10T02:23:38.086Z,10.77
2018-06-10T02:25:40.664Z,11.37
2018-06-10T02:27:43.232Z,10.70
2018-06-10T02:29:45.788Z,10.73
2018-06-10T02:31:48.385Z,11.70
2018-06-10T02:33:50.975Z,11.97
2018-06-10T02:35:53.536Z,11.93
2018-06-10T02:37:56.101Z,12.20
2018-06-10T02:39:59.093Z,12.37
2018-06-10T02:42:01.665Z,12.50
2018-06-10T02:44:04.275Z,13.97
2018-06-10T02:46:07.226Z,11.10
2018-06-10T02:48:09.797Z,12.33
2018-06-10T02:50:12.348Z,14.00
2018-06-10T02:52:15.046Z,12.90
2018-06-10T02:54:17.593Z,13.43
2018-06-10T02:56:20.153Z,12.27
2018-06-10T02:58:22.727Z,12.73
2018-06-10T03:00:25.375Z,13.77
2018-06-10T03:02:27.914Z,13.67
2018-06-10T03:04:30.489Z,12.57
2018-06-10T03:06:33.105Z,12.53
2018-06-10T03:08:36.442Z,13.27
2018-06-10T03:10:39.130Z,12.30
2018-06-10T03:12:41.685Z,13.00
2018-06-10T03:14:44.294Z,15.47
2018-06-10T03:16:47.053Z,13.60
2018-06-10T03:18:49.721Z,13.23
2018-06-10T03:20:52.281Z,12.77
2018-06-10T03:22:54.878Z,13.23
2018-06-10T03:24:57.432Z,12.57
2018-06-10T03:26:59.985Z,12.13
2018-06-10T03:29:02.605Z,11.30
2018-06-10T03:31:05.165Z,11.97
2018-06-10T03:33:07.741Z,12.60
2018-06-10T03:35:10.705Z,12.70
2018-06-10T03:37:13.256Z,12.90
2018-06-10T03:39:15.815Z,11.67
2018-06-10T03:41:19.161Z,12.57
2018-06-10T03:43:21.717Z,11.57
2018-06-10T03:45:24.317Z,11.70
2018-06-10T03:47:26.988Z,12.40
2018-06-10T03:49:29.538Z,11.70
2018-06-10T03:51:32.135Z,11.80
2018-06-10T03:53:34.700Z,12.80
2018-06-10T03:55:37.249Z,13.07
2018-06-10T03:57:39.817Z,12.80
2018-06-10T03:59:42.393Z,12.30
2018-06-10T04:01:44.953Z,14.10
2018-06-10T04:03:47.607Z,12.50
2018-06-10T04:05:50.245Z,13.67
2018-06-10T04:07:52.797Z,13.57
2018-06-10T04:09:55.360Z,12.87
2018-06-10T04:11:57.970Z,11.50
2018-06-10T04:14:00.524Z,13.30
2018-06-10T04:16:03.128Z,12.70
2018-06-10T04:18:05.805Z,13.90
2018-06-10T04:20:08.467Z,13.17
2018-06-10T04:22:11.017Z,13.83
2018-06-10T04:24:14.049Z,12.27
2018-06-10T04:26:16.697Z,12.37
2018-06-10T04:28:20.109Z,12.20
2018-06-10T04:30:22.700Z,12.63
2018-06-10T04:32:25.252Z,12.63
2018-06-10T04:34:27.804Z,13.77
2018-06-10T04:36:30.386Z,13.10
2018-06-10T04:38:32.939Z,14.90
2018-06-10T04:40:35.533Z,14.40
2018-06-10T04:42:38.317Z,13.47
2018-06-10T04:44:40.873Z,15.00
2018-06-10T04:46:43.452Z,14.83
2018-06-10T04:48:46.024Z,14.37
2018-06-10T04:50:48.617Z,14.00
2018-06-10T04:52:51.212Z,13.23
2018-06-10T04:54:53.753Z,15.80
2018-06-10T04:56:56.305Z,14.80
2018-06-10T04:58:58.854Z,15.37
2018-06-10T05:01:01.434Z,14.00
2018-06-10T05:03:04.043Z,15.10
2018-06-10T05:05:06.606Z,15.53
2018-06-10T05:07:09.185Z,15.33
2018-06-10T05:09:11.733Z,16.90
2018-06-10T05:11:14.290Z,15.73
2018-06-10T05:13:17.716Z,17.20
2018-06-10T05:15:20.225Z,16.00
2018-06-10T05:17:22.817Z,15.83
2018-06-10T05:19:26.353Z,16.77
2018-06-10T05:21:28.942Z,16.67
2018-06-10T05:23:31.519Z,16.77
2018-06-10T05:25:34.090Z,15.90
2018-06-10T05:27:36.641Z,15.80
2018-06-10T05:29:39.237Z,16.70
2018-06-10T05:31:41.920Z,15.80
2018-06-10T05:33:44.472Z,15.67
2018-06-10T05:35:47.165Z,15.00
2018-06-10T05:37:49.746Z,15.63
2018-06-10T05:39:52.299Z,16.77
2018-06-10T05:41:54.890Z,16.27
2018-06-10T05:43:57.465Z,15.00
2018-06-10T05:46:00.038Z,15.10
2018-06-10T05:48:02.600Z,15.37
2018-06-10T05:50:05.189Z,16.27
2018-06-10T05:52:07.759Z,15.27
2018-06-10T05:54:10.303Z,16.03
2018-06-10T05:56:12.875Z,16.33
2018-06-10T05:58:15.486Z,16.80
2018-06-10T06:00:18.046Z,15.87
2018-06-10T06:02:21.025Z,16.53
2018-06-10T06:04:23.587Z,15.60
2018-06-10T06:06:26.137Z,15.37
2018-06-10T06:08:28.722Z,17.00
2018-06-10T06:10:31.289Z,15.63
2018-06-10T06:12:33.888Z,16.17
2018-06-10T06:14:36.466Z,15.30
2018-06-10T06:16:39.019Z,15.30
2018-06-10T06:18:41.561Z,15.70
2018-06-10T06:20:44.914Z,14.80
2018-06-10T06:22:47.480Z,15.43
2018-06-10T06:24:50.033Z,16.10
2018-06-10T06:26:52.721Z,15.90
2018-06-10T06:28:55.265Z,17.53
2018-06-10T06:30:57.829Z,16.60
2018-06-10T06:33:00.450Z,16.60
2018-06-10T06:35:03.009Z,16.70
2018-06-10T06:37:05.719Z,14.63
2018-06-10T06:39:08.482Z,16.20
2018-06-10T06:41:11.033Z,15.10
2018-06-10T06:43:13.658Z,17.20
2018-06-10T06:45:16.301Z,16.13
2018-06-10T06:47:18.869Z,16.43
2018-06-10T06:49:21.449Z,15.83
2018-06-10T06:51:24.012Z,17.53
2018-06-10T06:53:26.597Z,15.70
2018-06-10T06:55:29.193Z,15.60
2018-06-10T06:57:31.943Z,15.17
2018-06-10T06:59:34.522Z,15.20
2018-06-10T07:01:37.090Z,13.97
2018-06-10T07:03:39.682Z,16.90
2018-06-10T07:05:43.762Z,16.80
2018-06-10T07:07:46.312Z,17.20
2018-06-10T07:09:49.329Z,16.73
2018-06-10T07:11:51.913Z,18.30
2018-06-10T07:13:54.469Z,16.67
2018-06-10T07:15:57.053Z,16.43
2018-06-10T07:17:59.626Z,16.10
2018-06-10T07:20:02.245Z,15.70
2018-06-10T07:22:04.737Z,17.93
2018-06-10T07:24:07.342Z,17.13
2018-06-10T07:26:09.917Z,15.40
2018-06-10T07:28:13.310Z,16.43
2018-06-10T07:30:15.852Z,17.87
2018-06-10T07:32:18.431Z,15.10
2018-06-10T07:34:21.017Z,17.00
2018-06-10T07:36:23.596Z,15.03
2018-06-10T07:38:26.153Z,16.90
2018-06-10T07:40:28.848Z,15.47
2018-06-10T07:42:31.430Z,16.50
2018-06-10T07:44:34.002Z,15.53
2018-06-10T07:46:36.672Z,15.67
2018-06-10T07:48:39.355Z,15.03
2018-06-10T07:50:41.814Z,16.27
2018-06-10T07:52:44.387Z,15.60
2018-06-10T07:54:46.933Z,16.67
2018-06-10T07:56:49.537Z,16.17
2018-06-10T07:58:52.220Z,15.80
2018-06-10T08:00:54.774Z,15.70
2018-06-10T08:02:57.360Z,15.37
2018-06-10T08:04:59.978Z,14.77
2018-06-10T08:07:02.509Z,16.50
2018-06-10T08:09:05.075Z,15.10
2018-06-10T08:11:07.641Z,16.17
2018-06-10T08:13:10.242Z,14.50
2018-06-10T08:15:12.813Z,16.70
2018-06-10T08:17:16.193Z,15.30
2018-06-10T08:19:18.748Z,18.47
2018-06-10T08:21:21.355Z,18.20
2018-06-10T08:23:23.955Z,16.90
2018-06-10T08:25:26.501Z,17.33
2018-06-10T08:27:29.164Z,15.70
2018-06-10T08:29:31.752Z,18.57
2018-06-10T08:31:34.313Z,16.00
2018-06-10T08:33:36.883Z,14.80
2018-06-10T08:35:39.461Z,17.63
2018-06-10T08:37:42.013Z,16.97
2018-06-10T08:39:44.564Z,19.10
2018-06-10T08:41:47.606Z,16.80
2018-06-10T08:43:50.169Z,15.30
2018-06-10T08:45:53.434Z,15.80
2018-06-10T08:47:56.457Z,18.53
2018-06-10T08:49:59.013Z,15.93
2018-06-10T08:52:01.573Z,17.27
2018-06-10T08:54:04.242Z,18.27
2018-06-10T08:56:06.800Z,15.97
2018-06-10T08:58:09.361Z,15.97
2018-06-10T09:00:12.916Z,16.60
2018-06-10T09:02:15.487Z,16.70
2018-06-10T09:04:18.032Z,17.00
2018-06-10T09:06:21.029Z,17.10
2018-06-10T09:08:24.357Z,17.40
2018-06-10T09:10:26.910Z,17.93
2018-06-10T09:12:29.581Z,18.17
2018-06-10T09:14:32.156Z,18.40
2018-06-10T09:16:34.704Z,17.73
2018-06-10T09:18:37.285Z,15.77
2018-06-10T09:20:39.839Z,15.53
2018-06-10T09:22:42.394Z,17.47
2018-06-10T09:24:45.909Z,16.90
2018-06-10T09:26:48.518Z,16.10
2018-06-10T09:28:51.132Z,17.60
2018-06-10T09:30:53.754Z,16.47
2018-06-10T09:32:56.326Z,16.07
2018-06-10T09:34:58.880Z,17.07
2018-06-10T09:37:01.461Z,17.10
2018-06-10T09:39:04.056Z,16.87
2018-06-10T09:41:06.596Z,16.70
2018-06-10T09:43:09.197Z,16.43
2018-06-10T09:45:11.763Z,15.60
2018-06-10T09:47:14.332Z,14.80
2018-06-10T09:49:16.902Z,17.40
2018-06-10T09:51:19.449Z,15.80
2018-06-10T09:53:22.001Z,15.00
2018-06-10T09:55:25.501Z,15.00
2018-06-10T09:57:27.906Z,15.10
2018-06-10T09:59:30.468Z,15.23
2018-06-10T10:01:33.082Z,16.20
2018-06-10T10:03:35.625Z,14.27
2018-06-10T10:05:38.177Z,16.30
2018-06-10T10:07:40.775Z,16.40
2018-06-10T10:09:43.313Z,15.73
2018-06-10T10:11:46.630Z,16.37
2018-06-10T10:13:49.310Z,15.60
2018-06-10T10:15:51.862Z,16.07
2018-06-10T10:17:54.493Z,14.77
2018-06-10T10:19:57.066Z,13.27
2018-06-10T10:21:59.604Z,14.17
2018-06-10T10:24:02.187Z,13.13
2018-06-10T10:26:04.772Z,13.87
2018-06-10T10:28:07.327Z,14.80
2018-06-10T10:30:09.877Z,15.17
2018-06-10T10:32:14.141Z,15.33
2018-06-10T10:34:16.698Z,16.80
2018-06-10T10:36:19.249Z,14.50
2018-06-10T10:38:21.821Z,14.20
2018-06-10T10:40:24.383Z,14.50
2018-06-10T10:42:27.692Z,14.23
2018-06-10T10:44:30.402Z,13.70
2018-06-10T10:46:33.282Z,16.07
2018-06-10T10:48:35.823Z,14.03
2018-06-10T10:50:38.632Z,12.90
2018-06-10T10:52:41.336Z,13.97
2018-06-10T10:54:43.899Z,13.37
2018-06-10T10:56:46.563Z,13.83
2018-06-10T10:58:49.118Z,14.03
2018-06-10T11:00:51.681Z,14.77
2018-06-10T11:02:54.288Z,12.83
2018-06-10T11:04:56.853Z,13.17
2018-06-10T11:06:59.532Z,13.63
2018-06-10T11:09:02.141Z,13.00
2018-06-10T11:11:05.453Z,12.50
2018-06-10T11:13:08.011Z,12.93
2018-06-10T11:15:11.451Z,12.17
2018-06-10T11:17:14.006Z,11.90
2018-06-10T11:19:16.566Z,13.33
2018-06-10T11:21:19.181Z,12.53
2018-06-10T11:23:21.741Z,11.80
2018-06-10T11:25:25.145Z,11.20
2018-06-10T11:27:27.725Z,10.57
2018-06-10T11:29:30.279Z,10.27
2018-06-10T11:31:32.843Z,11.47
2018-06-10T11:33:35.846Z,12.17
2018-06-10T11:35:38.424Z,11.13
2018-06-10T11:37:40.973Z,10.53
2018-06-10T11:39:43.559Z,11.07
2018-06-10T11:41:46.117Z,10.77
2018-06-10T11:43:48.702Z,11.20
2018-06-10T11:45:51.421Z,10.60
2018-06-10T11:47:53.986Z,10.17
2018-06-10T11:49:56.554Z,10.63
2018-06-10T11:51:59.291Z,10.80
2018-06-10T11:54:01.815Z,11.60
2018-06-10T11:56:04.356Z,10.47
2018-06-10T11:58:06.949Z,10.27
2018-06-10T12:00:09.637Z,10.87
2018-06-10T12:02:12.953Z,9.83
2018-06-10T12:04:15.686Z,10.83
2018-06-10T12:06:18.463Z,9.20
2018-06-10T12:08:21.035Z,9.30
2018-06-10T12:10:24.661Z,8.63
2018-06-10T12:12:27.201Z,8.37
2018-06-10T12:14:29.754Z,9.40
2018-06-10T12:16:32.383Z,9.37
2018-06-10T12:18:34.884Z,8.87
2018-06-10T12:20:37.458Z,7.90
2018-06-10T12:22:40.062Z,6.10
2018-06-10T12:24:42.577Z,6.73
2018-06-10T12:26:45.916Z,6.50
2018-06-10T12:28:48.485Z,6.73
2018-06-10T12:30:51.042Z,7.47
2018-06-10T12:32:53.585Z,7.47
2018-06-10T12:34:57.071Z,5.90
2018-06-10T12:36:59.605Z,6.07
2018-06-10T12:39:02.173Z,5.37
2018-06-10T12:41:04.842Z,5.50
2018-06-10T12:43:07.388Z,5.50
2018-06-10T12:45:10.700Z,5.70
2018-06-10T12:47:13.265Z,6.30
2018-06-10T12:49:15.861Z,5.90
2018-06-10T12:51:19.121Z,4.87
2018-06-10T12:53:21.783Z,5.47
2018-06-10T12:55:25.114Z,5.30
2018-06-10T12:57:27.681Z,6.23
2018-06-10T12:59:30.229Z,6.37
2018-06-10T13:01:32.797Z,6.03
2018-06-10T13:03:36.126Z,5.63
2018-06-10T13:05:39.122Z,5.13
2018-06-10T13:07:41.661Z,6.07
2018-06-10T13:09:44.265Z,5.57
2018-06-10T13:11:46.838Z,5.77
2018-06-10T13:13:49.391Z,5.50
2018-06-10T13:15:51.948Z,5.63
2018-06-10T13:17:55.268Z,5.80
2018-06-10T13:19:57.805Z,5.43
2018-06-10T13:22:00.484Z,5.90
2018-06-10T13:24:03.792Z,5.00
2018-06-10T13:26:06.336Z,5.00
2018-06-10T13:28:09.662Z,5.00
2018-06-10T13:30:12.241Z,5.07
2018-06-10T13:32:14.793Z,5.50
2018-06-10T13:34:17.346Z,5.17
2018-06-10T13:36:20.680Z,6.10
2018-06-10T13:38:23.231Z,5.70
2018-06-10T13:40:25.876Z,6.13
2018-06-10T13:42:28.517Z,5.23
2018-06-10T13:44:31.056Z,4.70
2018-06-10T13:46:33.680Z,5.13
2018-06-10T13:48:36.246Z,5.10
2018-06-10T13:50:38.789Z,4.83
2018-06-10T13:52:41.333Z,5.20
2018-06-10T13:54:45.043Z,5.40
2018-06-10T13:56:47.629Z,5.47
2018-06-10T13:58:50.177Z,5.40
2018-06-10T14:00:53.517Z,5.40
2018-06-10T14:02:56.057Z,5.63
2018-06-10T14:04:58.613Z,5.23
2018-06-10T14:07:01.991Z,5.20
2018-06-10T14:09:04.516Z,5.13
2018-06-10T14:11:07.067Z,4.77
2018-06-10T14:13:09.645Z,4.30
2018-06-10T14:15:12.201Z,4.80
2018-06-10T14:17:15.512Z,4.10
2018-06-10T14:19:18.089Z,4.53
2018-06-10T14:21:20.644Z,4.60
2018-06-10T14:23:23.205Z,4.67
2018-06-10T14:25:26.953Z,5.17
2018-06-10T14:27:30.149Z,5.40
2018-06-10T14:29:32.701Z,4.63
2018-06-10T14:31:35.361Z,5.10
2018-06-10T14:33:37.972Z,4.97
2018-06-10T14:35:40.512Z,4.27
2018-06-10T14:37:43.077Z,5.10
2018-06-10T14:39:45.636Z,5.60
2018-06-10T14:41:48.961Z,6.33
2018-06-10T14:43:51.530Z,5.17
2018-06-10T14:45:54.162Z,4.80
2018-06-10T14:47:56.693Z,4.93
2018-06-10T14:49:59.262Z,5.10
2018-06-10T14:52:01.826Z,5.20
2018-06-10T14:54:04.409Z,5.07
2018-06-10T14:56:07.024Z,5.10
2018-06-10T14:58:09.564Z,5.50
2018-06-10T15:00:12.118Z,4.87
2018-06-10T15:02:14.711Z,5.47
2018-06-10T15:04:17.246Z,5.80
2018-06-10T15:06:19.827Z,5.10
2018-06-10T15:08:22.763Z,5.40
2018-06-10T15:10:25.306Z,5.87
2018-06-10T15:12:27.861Z,5.47
2018-06-10T15:14:30.451Z,5.30
2018-06-10T15:16:33.011Z,4.80
2018-06-10T15:18:35.648Z,5.43
2018-06-10T15:20:38.195Z,5.50
2018-06-10T15:22:40.749Z,4.70
2018-06-10T15:24:43.298Z,5.20
2018-06-10T15:26:45.869Z,5.83
2018-06-10T15:28:48.437Z,4.83
2018-06-10T15:30:50.981Z,5.10
2018-06-10T15:32:53.545Z,5.00
2018-06-10T15:34:56.161Z,5.73
2018-06-10T15:36:58.789Z,6.77
2018-06-10T15:39:01.380Z,5.00
2018-06-10T15:41:03.913Z,6.10
2018-06-10T15:43:06.469Z,5.80
2018-06-10T15:45:09.074Z,6.00
2018-06-10T15:47:11.619Z,5.57
2018-06-10T15:49:14.182Z,5.60
2018-06-10T15:51:16.744Z,6.23
2018-06-10T15:53:19.310Z,5.50
2018-06-10T15:55:22.623Z,5.27
2018-06-10T15:57:25.225Z,5.87
2018-06-10T15:59:28.770Z,5.90
2018-06-10T16:01:32.102Z,5.60
2018-06-10T16:03:34.780Z,5.23
2018-06-10T16:05:37.349Z,5.40
2018-06-10T16:07:39.877Z,5.50
2018-06-10T16:09:43.212Z,5.10
2018-06-10T16:11:45.761Z,5.63
2018-06-10T16:13:48.322Z,5.83
2018-06-10T16:15:51.676Z,5.60
2018-06-10T16:17:54.241Z,5.50
2018-06-10T16:19:56.791Z,5.50
2018-06-10T16:21:59.357Z,6.33
2018-06-10T16:24:01.935Z,5.90
2018-06-10T16:26:04.470Z,5.50
2018-06-10T16:28:07.850Z,6.10
2018-06-10T16:30:10.376Z,5.40
2018-06-10T16:32:12.921Z,5.63
2018-06-10T16:34:15.945Z,5.67
2018-06-10T16:36:19.299Z,5.40
2018-06-10T16:38:21.845Z,5.40
2018-06-10T16:40:25.208Z,5.37
2018-06-10T16:42:27.757Z,5.87
2018-06-10T16:44:30.325Z,5.60
2018-06-10T16:46:32.881Z,5.73
2018-06-10T16:48:35.433Z,5.97
2018-06-10T16:50:38.764Z,5.90
2018-06-10T16:52:41.434Z,5.23
2018-06-10T16:54:43.982Z,5.90
2018-06-10T16:56:47.294Z,5.73
2018-06-10T16:58:49.893Z,6.67
2018-06-10T17:00:52.481Z,6.10
2018-06-10T17:02:55.032Z,6.53
2018-06-10T17:04:57.698Z,5.80
2018-06-10T17:07:00.242Z,6.90
2018-06-10T17:09:03.557Z,7.63
2018-06-10T17:11:06.132Z,6.27
2018-06-10T17:13:08.675Z,6.30
2018-06-10T17:15:12.014Z,7.00
2018-06-10T17:17:14.589Z,6.40
2018-06-10T17:19:17.137Z,6.70
2018-06-10T17:21:19.682Z,6.50
2018-06-10T17:23:23.254Z,6.30
2018-06-10T17:25:25.805Z,6.43
2018-06-10T17:27:28.360Z,6.10
2018-06-10T17:29:30.947Z,6.30
2018-06-10T17:31:33.497Z,6.83
2018-06-10T17:33:36.045Z,6.03
2018-06-10T17:35:39.382Z,7.10
2018-06-10T17:37:41.929Z,6.63
2018-06-10T17:39:44.490Z,7.77
2018-06-10T17:41:47.918Z,6.70
2018-06-10T17:43:50.466Z,7.20
2018-06-10T17:45:53.089Z,6.27
2018-06-10T17:47:55.757Z,7.13
2018-06-10T17:49:58.317Z,6.50
2018-06-10T17:52:00.862Z,6.77
2018-06-10T17:54:04.296Z,6.70
2018-06-10T17:56:06.838Z,7.30
2018-06-10T17:58:09.393Z,6.60
2018-06-10T18:00:12.768Z,6.37
2018-06-10T18:02:15.317Z,6.90
2018-06-10T18:04:17.864Z,7.07
2018-06-10T18:06:20.596Z,6.30
2018-06-10T18:08:23.090Z,6.50
2018-06-10T18:10:25.641Z,6.70
2018-06-10T18:12:29.061Z,6.47
2018-06-10T18:14:31.618Z,5.93
2018-06-10T18:16:34.914Z,5.93
2018-06-10T18:18:37.481Z,6.30
2018-06-10T18:20:40.788Z,6.00
2018-06-10T18:22:43.341Z,6.73
2018-06-10T18:24:46.673Z,6.50
2018-06-10T18:26:49.220Z,6.90
2018-06-10T18:28:51.776Z,7.80
2018-06-10T18:30:55.237Z,7.97
2018-06-10T18:32:57.794Z,6.67
2018-06-10T18:35:01.226Z,7.07
2018-06-10T18:37:03.821Z,6.30
2018-06-10T18:39:06.321Z,7.07
2018-06-10T18:41:08.874Z,7.37
2018-06-10T18:43:11.620Z,6.70
2018-06-10T18:45:14.177Z,6.30
2018-06-10T18:47:16.738Z,7.20
2018-06-10T18:49:19.411Z,5.80
2018-06-10T18:51:22.005Z,7.20
2018-06-10T18:53:25.005Z,6.77
2018-06-10T18:55:27.742Z,6.63
2018-06-10T18:57:30.276Z,6.70
2018-06-10T18:59:32.829Z,6.43
2018-06-10T19:01:36.177Z,7.47
2018-06-10T19:03:38.727Z,5.83
2018-06-10T19:05:41.302Z,7.70
2018-06-10T19:07:44.009Z,6.80
2018-06-10T19:09:46.573Z,6.83
2018-06-10T19:11:49.165Z,7.60
2018-06-10T19:13:51.835Z,7.30
2018-06-10T19:15:54.378Z,7.77
2018-06-10T19:17:56.925Z,6.90
2018-06-10T19:20:00.342Z,7.27
2018-06-10T19:22:02.893Z,7.70
2018-06-10T19:24:06.440Z,7.20
2018-06-10T19:26:09.010Z,7.10
2018-06-10T19:28:11.592Z,7.10
2018-06-10T19:30:14.174Z,7.77
2018-06-10T19:32:16.830Z,7.70
2018-06-10T19:34:19.373Z,7.70
2018-06-10T19:36:21.939Z,7.67
2018-06-10T19:38:25.301Z,6.37
2018-06-10T19:40:27.833Z,7.83
2018-06-10T19:42:30.377Z,6.67
2018-06-10T19:44:33.446Z,7.70
2018-06-10T19:46:36.825Z,6.83
2018-06-10T19:48:40.320Z,7.57
2018-06-10T19:50:42.925Z,7.47
2018-06-10T19:52:45.571Z,7.53
2018-06-10T19:54:48.157Z,7.60
2018-06-10T19:56:51.493Z,7.90
2018-06-10T19:58:54.043Z,7.70
2018-06-10T20:00:56.616Z,8.40
2018-06-10T20:02:59.224Z,8.10
2018-06-10T20:05:01.779Z,8.87
2018-06-10T20:07:04.373Z,9.30
2018-06-10T20:09:07.041Z,9.03
2018-06-10T20:11:09.580Z,9.40
2018-06-10T20:13:12.135Z,9.27
2018-06-10T20:15:16.705Z,9.90
2018-06-10T20:17:19.324Z,8.17
2018-06-10T20:19:22.699Z,8.93
2018-06-10T20:21:25.286Z,9.17
2018-06-10T20:23:27.837Z,8.47
2018-06-10T20:25:30.387Z,8.07
2018-06-10T20:27:32.963Z,8.67
2018-06-10T20:29:35.528Z,8.60
2018-06-10T20:31:38.117Z,9.03
2018-06-10T20:33:40.693Z,9.37
2018-06-10T20:35:43.273Z,9.83
2018-06-10T20:37:45.793Z,9.17
2018-06-10T20:39:49.463Z,9.57
2018-06-10T20:41:52.090Z,8.47
2018-06-10T20:43:54.643Z,8.90
2018-06-10T20:45:57.221Z,9.37
2018-06-10T20:47:59.770Z,9.90
2018-06-10T20:50:03.085Z,9.70
2018-06-10T20:52:05.665Z,8.70
2018-06-10T20:54:08.209Z,9.40
2018-06-10T20:56:11.653Z,8.93
2018-06-10T20:58:14.225Z,9.07
2018-06-10T21:00:16.784Z,8.90
2018-06-10T21:02:19.317Z,7.97
2018-06-10T21:04:21.968Z,9.20
2018-06-10T21:06:24.527Z,9.37
2018-06-10T21:08:27.085Z,9.40
2018-06-10T21:10:29.673Z,8.80
2018-06-10T21:12:32.216Z,9.83
2018-06-10T21:14:34.783Z,8.83
2018-06-10T21:16:38.429Z,8.77
2018-06-10T21:18:40.976Z,9.53
2018-06-10T21:20:43.569Z,8.90
2018-06-10T21:22:46.136Z,8.90
2018-06-10T21:24:48.706Z,9.37
2018-06-10T21:26:51.297Z,10.23
2018-06-10T21:28:53.866Z,10.10
2018-06-10T21:30:56.414Z,8.93
2018-06-10T21:32:58.970Z,9.27
2018-06-10T21:35:01.537Z,9.20
2018-06-10T21:37:04.187Z,9.90
2018-06-10T21:39:06.708Z,8.90
2018-06-10T21:41:09.293Z,9.00
2018-06-10T21:43:11.865Z,9.37
2018-06-10T21:45:14.418Z,9.73
2018-06-10T21:47:17.025Z,8.57
2018-06-10T21:49:19.596Z,10.07
2018-06-10T21:51:22.160Z,9.50
2018-06-10T21:53:24.804Z,9.83
2018-06-10T21:55:27.350Z,10.60
2018-06-10T21:57:30.675Z,8.87
2018-06-10T21:59:33.373Z,10.10
2018-06-10T22:01:36.010Z,8.63
2018-06-10T22:03:39.325Z,10.00
2018-06-10T22:05:42.056Z,9.90
2018-06-10T22:07:44.730Z,9.47
2018-06-10T22:09:47.388Z,8.90
2018-06-10T22:11:49.947Z,8.50
2018-06-10T22:13:52.494Z,9.10
2018-06-10T22:15:55.093Z,8.50
2018-06-10T22:17:57.667Z,8.90
2018-06-10T22:20:00.225Z,7.70
2018-06-10T22:22:02.801Z,8.73
2018-06-10T22:24:05.385Z,8.90
2018-06-10T22:26:07.957Z,8.40
2018-06-10T22:28:10.498Z,8.07
2018-06-10T22:30:13.132Z,8.20
2018-06-10T22:32:15.673Z,7.80
2018-06-10T22:34:18.261Z,7.67
2018-06-10T22:36:20.842Z,8.00
2018-06-10T22:38:23.397Z,8.23
2018-06-10T22:40:25.973Z,7.73
2018-06-10T22:42:28.957Z,8.07
2018-06-10T22:44:31.509Z,8.90
2018-06-10T22:46:34.100Z,6.83
2018-06-10T22:48:36.713Z,7.80
2018-06-10T22:50:39.269Z,7.60
2018-06-10T22:52:41.813Z,7.40
2018-06-10T22:54:44.394Z,7.40
2018-06-10T22:56:46.970Z,7.70
2018-06-10T22:58:49.509Z,7.00
2018-06-10T23:00:52.109Z,7.30
2018-06-10T23:02:54.637Z,7.37
2018-06-10T23:04:57.950Z,7.73
2018-06-10T23:07:00.651Z,7.53
2018-06-10T23:09:03.219Z,8.27
2018-06-10T23:11:05.777Z,7.87
2018-06-10T23:13:08.821Z,8.37
2018-06-10T23:15:11.354Z,8.60
2018-06-10T23:17:13.939Z,6.80
2018-06-10T23:19:17.016Z,8.57
2018-06-10T23:21:19.565Z,7.87
2018-06-10T23:23:22.172Z,7.93
2018-06-10T23:25:24.743Z,6.70
2018-06-10T23:27:27.297Z,7.17
2018-06-10T23:29:29.845Z,7.57
2018-06-10T23:31:33.488Z,7.60
2018-06-10T23:33:36.065Z,6.80
2018-06-10T23:35:38.613Z,8.00
2018-06-10T23:37:41.185Z,7.57
2018-06-10T23:39:43.731Z,7.70
2018-06-10T23:41:46.283Z,7.60
2018-06-10T23:43:49.747Z,8.10
2018-06-10T23:45:52.288Z,8.23
2018-06-10T23:47:54.885Z,8.50
2018-06-10T23:49:57.563Z,8.30
2018-06-10T23:52:00.114Z,8.10
2018-06-10T23:54:02.674Z,8.23
2018-06-10T23:56:05.246Z,7.37
2018-06-10T23:58:07.854Z,9.00
